sensor_id;sensor_type;location;lat;lon;timestamp;P1;durP1;ratioP1;P2;durP2;ratioP2
27223;SDS011;14965;50.660;13.226;2022-10-22T00:01:06;11.30;;;7.35;;
27223;SDS011;14965;50.660;13.226;2022-10-22T00:03:32;14.05;;;7.10;;
27223;SDS011;14965;50.660;13.226;2022-10-22T00:05:58;10.90;;;7.05;;
27223;SDS011;14965;50.660;13.226;2022-10-22T00:08:24;10.48;;;6.63;;
27223;SDS011;14965;50.660;13.226;2022-10-22T00:10:50;15.68;;;7.95;;
27223;SDS011;14965;50.660;13.226;2022-10-22T00:13:16;11.70;;;6.47;;
27223;SDS011;14965;50.660;13.226;2022-10-22T00:15:44;11.27;;;7.13;;
27223;SDS011;14965;50.660;13.226;2022-10-22T00:18:10;9.27;;;6.53;;
27223;SDS011;14965;50.660;13.226;2022-10-22T00:20:36;11.45;;;7.28;;
27223;SDS011;14965;50.660;13.226;2022-10-22T00:23:02;10.02;;;6.63;;
27223;SDS011;14965;50.660;13.226;2022-10-22T00:25:28;9.77;;;6.35;;
27223;SDS011;14965;50.660;13.226;2022-10-22T00:27:55;10.68;;;6.97;;
27223;SDS011;14965;50.660;13.226;2022-10-22T00:30:21;13.65;;;7.10;;
27223;SDS011;14965;50.660;13.226;2022-10-22T00:32:48;10.60;;;7.07;;
27223;SDS011;14965;50.660;13.226;2022-10-22T00:35:14;11.60;;;7.80;;
27223;SDS011;14965;50.660;13.226;2022-10-22T00:37:40;12.00;;;7.35;;
27223;SDS011;14965;50.660;13.226;2022-10-22T00:40:07;11.18;;;7.53;;
27223;SDS011;14965;50.660;13.226;2022-10-22T00:42:34;12.80;;;8.57;;
27223;SDS011;14965;50.660;13.226;2022-10-22T00:45:06;12.05;;;7.22;;
27223;SDS011;14965;50.660;13.226;2022-10-22T00:47:46;15.02;;;8.23;;
27223;SDS011;14965;50.660;13.226;2022-10-22T00:50:21;17.58;;;9.13;;
27223;SDS011;14965;50.660;13.226;2022-10-22T00:52:54;11.98;;;7.32;;
27223;SDS011;14965;50.660;13.226;2022-10-22T00:55:22;14.82;;;7.13;;
27223;SDS011;14965;50.660;13.226;2022-10-22T00:57:50;14.25;;;8.30;;
27223;SDS011;14965;50.660;13.226;2022-10-22T01:00:19;11.00;;;7.57;;
27223;SDS011;14965;50.660;13.226;2022-10-22T01:02:46;10.30;;;8.15;;
27223;SDS011;14965;50.660;13.226;2022-10-22T01:05:15;12.15;;;8.20;;
27223;SDS011;14965;50.660;13.226;2022-10-22T01:07:44;12.50;;;7.80;;
27223;SDS011;14965;50.660;13.226;2022-10-22T01:10:17;15.82;;;8.05;;
27223;SDS011;14965;50.660;13.226;2022-10-22T01:13:10;13.73;;;8.98;;
27223;SDS011;14965;50.660;13.226;2022-10-22T01:15:53;14.20;;;7.88;;
27223;SDS011;14965;50.660;13.226;2022-10-22T01:21:06;10.70;;;7.60;;
27223;SDS011;14965;50.660;13.226;2022-10-22T01:26:51;12.43;;;7.78;;
27223;SDS011;14965;50.660;13.226;2022-10-22T01:29:33;14.60;;;8.98;;
27223;SDS011;14965;50.660;13.226;2022-10-22T01:32:11;11.95;;;7.35;;
27223;SDS011;14965;50.660;13.226;2022-10-22T01:34:43;11.02;;;7.07;;
27223;SDS011;14965;50.660;13.226;2022-10-22T01:37:16;14.43;;;9.02;;
27223;SDS011;14965;50.660;13.226;2022-10-22T01:39:47;12.73;;;8.20;;
27223;SDS011;14965;50.660;13.226;2022-10-22T01:42:15;15.00;;;9.20;;
27223;SDS011;14965;50.660;13.226;2022-10-22T01:44:43;15.23;;;8.93;;
27223;SDS011;14965;50.660;13.226;2022-10-22T01:47:13;15.45;;;8.55;;
27223;SDS011;14965;50.660;13.226;2022-10-22T01:49:52;11.57;;;7.32;;
27223;SDS011;14965;50.660;13.226;2022-10-22T01:52:51;14.27;;;9.02;;
27223;SDS011;14965;50.660;13.226;2022-10-22T01:55:40;13.30;;;9.10;;
27223;SDS011;14965;50.660;13.226;2022-10-22T01:58:24;12.38;;;7.65;;
27223;SDS011;14965;50.660;13.226;2022-10-22T02:01:08;17.90;;;9.23;;
27223;SDS011;14965;50.660;13.226;2022-10-22T02:03:44;13.02;;;8.15;;
27223;SDS011;14965;50.660;13.226;2022-10-22T02:06:20;14.65;;;8.10;;
27223;SDS011;14965;50.660;13.226;2022-10-22T02:08:49;12.82;;;8.75;;
27223;SDS011;14965;50.660;13.226;2022-10-22T02:11:18;13.07;;;8.90;;
27223;SDS011;14965;50.660;13.226;2022-10-22T02:13:45;12.10;;;7.90;;
27223;SDS011;14965;50.660;13.226;2022-10-22T02:16:18;11.68;;;7.32;;
27223;SDS011;14965;50.660;13.226;2022-10-22T02:18:50;14.07;;;8.02;;
27223;SDS011;14965;50.660;13.226;2022-10-22T02:21:21;12.70;;;8.15;;
27223;SDS011;14965;50.660;13.226;2022-10-22T02:23:47;17.50;;;8.90;;
27223;SDS011;14965;50.660;13.226;2022-10-22T02:26:15;11.50;;;7.80;;
27223;SDS011;14965;50.660;13.226;2022-10-22T02:28:51;12.00;;;8.00;;
27223;SDS011;14965;50.660;13.226;2022-10-22T02:31:27;15.10;;;7.90;;
27223;SDS011;14965;50.660;13.226;2022-10-22T02:34:00;14.65;;;8.65;;
27223;SDS011;14965;50.660;13.226;2022-10-22T02:36:32;16.50;;;8.48;;
27223;SDS011;14965;50.660;13.226;2022-10-22T02:38:59;15.45;;;9.32;;
27223;SDS011;14965;50.660;13.226;2022-10-22T02:41:26;14.43;;;7.97;;
27223;SDS011;14965;50.660;13.226;2022-10-22T02:43:53;13.40;;;8.13;;
27223;SDS011;14965;50.660;13.226;2022-10-22T02:46:20;17.02;;;8.70;;
27223;SDS011;14965;50.660;13.226;2022-10-22T02:48:48;11.88;;;7.57;;
27223;SDS011;14965;50.660;13.226;2022-10-22T02:51:14;12.45;;;7.95;;
27223;SDS011;14965;50.660;13.226;2022-10-22T02:53:40;16.23;;;9.15;;
27223;SDS011;14965;50.660;13.226;2022-10-22T02:56:06;12.65;;;8.07;;
27223;SDS011;14965;50.660;13.226;2022-10-22T02:58:32;16.50;;;8.02;;
27223;SDS011;14965;50.660;13.226;2022-10-22T03:00:58;12.88;;;7.65;;
27223;SDS011;14965;50.660;13.226;2022-10-22T03:03:24;11.63;;;7.43;;
27223;SDS011;14965;50.660;13.226;2022-10-22T03:05:52;14.82;;;7.38;;
27223;SDS011;14965;50.660;13.226;2022-10-22T03:08:17;13.32;;;7.50;;
27223;SDS011;14965;50.660;13.226;2022-10-22T03:10:43;17.90;;;8.60;;
27223;SDS011;14965;50.660;13.226;2022-10-22T03:13:10;14.70;;;8.43;;
27223;SDS011;14965;50.660;13.226;2022-10-22T03:15:36;11.40;;;7.18;;
27223;SDS011;14965;50.660;13.226;2022-10-22T03:18:02;13.20;;;7.72;;
27223;SDS011;14965;50.660;13.226;2022-10-22T03:20:28;13.80;;;8.35;;
27223;SDS011;14965;50.660;13.226;2022-10-22T03:22:55;14.75;;;8.05;;
27223;SDS011;14965;50.660;13.226;2022-10-22T03:25:23;11.75;;;7.50;;
27223;SDS011;14965;50.660;13.226;2022-10-22T03:27:51;15.07;;;8.13;;
27223;SDS011;14965;50.660;13.226;2022-10-22T03:30:21;13.05;;;7.50;;
27223;SDS011;14965;50.660;13.226;2022-10-22T03:32:46;11.93;;;7.80;;
27223;SDS011;14965;50.660;13.226;2022-10-22T03:35:13;12.30;;;7.72;;
27223;SDS011;14965;50.660;13.226;2022-10-22T03:37:39;12.48;;;7.80;;
27223;SDS011;14965;50.660;13.226;2022-10-22T03:40:07;13.32;;;7.20;;
27223;SDS011;14965;50.660;13.226;2022-10-22T03:42:35;10.25;;;7.10;;
27223;SDS011;14965;50.660;13.226;2022-10-22T03:45:00;12.18;;;6.65;;
27223;SDS011;14965;50.660;13.226;2022-10-22T03:47:27;12.95;;;7.35;;
27223;SDS011;14965;50.660;13.226;2022-10-22T03:49:52;11.50;;;6.03;;
27223;SDS011;14965;50.660;13.226;2022-10-22T03:52:18;12.10;;;6.10;;
27223;SDS011;14965;50.660;13.226;2022-10-22T03:54:44;10.00;;;6.60;;
27223;SDS011;14965;50.660;13.226;2022-10-22T03:57:12;10.25;;;6.63;;
27223;SDS011;14965;50.660;13.226;2022-10-22T03:59:39;12.48;;;7.72;;
27223;SDS011;14965;50.660;13.226;2022-10-22T04:02:07;12.18;;;7.10;;
27223;SDS011;14965;50.660;13.226;2022-10-22T04:04:34;11.63;;;7.30;;
27223;SDS011;14965;50.660;13.226;2022-10-22T04:07:01;12.27;;;7.60;;
27223;SDS011;14965;50.660;13.226;2022-10-22T04:09:29;12.35;;;5.65;;
27223;SDS011;14965;50.660;13.226;2022-10-22T04:11:55;13.82;;;7.45;;
27223;SDS011;14965;50.660;13.226;2022-10-22T04:14:23;9.30;;;6.80;;
27223;SDS011;14965;50.660;13.226;2022-10-22T04:16:49;11.65;;;7.05;;
27223;SDS011;14965;50.660;13.226;2022-10-22T04:19:15;13.82;;;7.35;;
27223;SDS011;14965;50.660;13.226;2022-10-22T04:21:41;8.80;;;5.93;;
27223;SDS011;14965;50.660;13.226;2022-10-22T04:24:07;10.18;;;5.63;;
27223;SDS011;14965;50.660;13.226;2022-10-22T04:26:33;12.88;;;6.53;;
27223;SDS011;14965;50.660;13.226;2022-10-22T04:28:59;10.65;;;5.75;;
27223;SDS011;14965;50.660;13.226;2022-10-22T04:31:26;10.60;;;6.50;;
27223;SDS011;14965;50.660;13.226;2022-10-22T04:33:52;11.60;;;6.53;;
27223;SDS011;14965;50.660;13.226;2022-10-22T04:36:19;10.55;;;6.32;;
27223;SDS011;14965;50.660;13.226;2022-10-22T04:38:46;13.88;;;6.70;;
27223;SDS011;14965;50.660;13.226;2022-10-22T04:41:17;11.23;;;5.50;;
27223;SDS011;14965;50.660;13.226;2022-10-22T04:46:12;7.10;;;5.40;;
27223;SDS011;14965;50.660;13.226;2022-10-22T04:48:42;9.80;;;5.40;;
27223;SDS011;14965;50.660;13.226;2022-10-22T04:51:10;9.45;;;5.80;;
27223;SDS011;14965;50.660;13.226;2022-10-22T04:53:38;12.13;;;6.15;;
27223;SDS011;14965;50.660;13.226;2022-10-22T04:56:05;9.90;;;6.57;;
27223;SDS011;14965;50.660;13.226;2022-10-22T04:58:33;9.88;;;6.10;;
27223;SDS011;14965;50.660;13.226;2022-10-22T05:00:59;9.50;;;5.53;;
27223;SDS011;14965;50.660;13.226;2022-10-22T05:03:25;12.48;;;6.30;;
27223;SDS011;14965;50.660;13.226;2022-10-22T05:05:52;7.82;;;5.18;;
27223;SDS011;14965;50.660;13.226;2022-10-22T05:08:18;10.85;;;6.70;;
27223;SDS011;14965;50.660;13.226;2022-10-22T05:10:44;12.55;;;5.80;;
27223;SDS011;14965;50.660;13.226;2022-10-22T05:13:10;9.48;;;6.45;;
27223;SDS011;14965;50.660;13.226;2022-10-22T05:15:36;13.23;;;6.78;;
27223;SDS011;14965;50.660;13.226;2022-10-22T05:18:02;12.88;;;6.65;;
27223;SDS011;14965;50.660;13.226;2022-10-22T05:20:28;10.85;;;6.65;;
27223;SDS011;14965;50.660;13.226;2022-10-22T05:22:55;10.13;;;6.07;;
27223;SDS011;14965;50.660;13.226;2022-10-22T05:25:21;11.90;;;6.60;;
27223;SDS011;14965;50.660;13.226;2022-10-22T05:27:47;12.07;;;6.28;;
27223;SDS011;14965;50.660;13.226;2022-10-22T05:30:14;12.40;;;7.15;;
27223;SDS011;14965;50.660;13.226;2022-10-22T05:32:40;12.25;;;6.90;;
27223;SDS011;14965;50.660;13.226;2022-10-22T05:35:06;10.88;;;6.32;;
27223;SDS011;14965;50.660;13.226;2022-10-22T05:37:33;14.07;;;7.60;;
27223;SDS011;14965;50.660;13.226;2022-10-22T05:40:00;12.43;;;7.03;;
27223;SDS011;14965;50.660;13.226;2022-10-22T05:42:29;12.30;;;8.57;;
27223;SDS011;14965;50.660;13.226;2022-10-22T05:44:55;11.35;;;7.15;;
27223;SDS011;14965;50.660;13.226;2022-10-22T05:47:21;17.25;;;8.38;;
27223;SDS011;14965;50.660;13.226;2022-10-22T05:49:47;14.30;;;9.07;;
27223;SDS011;14965;50.660;13.226;2022-10-22T05:52:13;14.25;;;8.60;;
27223;SDS011;14965;50.660;13.226;2022-10-22T05:54:39;20.30;;;9.15;;
27223;SDS011;14965;50.660;13.226;2022-10-22T05:57:07;15.55;;;8.40;;
27223;SDS011;14965;50.660;13.226;2022-10-22T05:59:32;13.70;;;9.25;;
27223;SDS011;14965;50.660;13.226;2022-10-22T06:01:59;14.50;;;8.10;;
27223;SDS011;14965;50.660;13.226;2022-10-22T06:04:25;21.67;;;10.57;;
27223;SDS011;14965;50.660;13.226;2022-10-22T06:06:51;16.77;;;10.32;;
27223;SDS011;14965;50.660;13.226;2022-10-22T06:09:19;43.53;;;24.52;;
27223;SDS011;14965;50.660;13.226;2022-10-22T06:11:49;75.70;;;54.78;;
27223;SDS011;14965;50.660;13.226;2022-10-22T06:14:16;26.88;;;15.10;;
27223;SDS011;14965;50.660;13.226;2022-10-22T06:16:44;20.70;;;10.32;;
27223;SDS011;14965;50.660;13.226;2022-10-22T06:19:14;24.65;;;10.65;;
27223;SDS011;14965;50.660;13.226;2022-10-22T06:21:43;16.58;;;9.02;;
27223;SDS011;14965;50.660;13.226;2022-10-22T06:24:09;22.05;;;10.90;;
27223;SDS011;14965;50.660;13.226;2022-10-22T06:26:36;11.52;;;6.05;;
27223;SDS011;14965;50.660;13.226;2022-10-22T06:29:03;13.55;;;6.80;;
27223;SDS011;14965;50.660;13.226;2022-10-22T06:31:30;12.60;;;5.47;;
27223;SDS011;14965;50.660;13.226;2022-10-22T06:33:57;7.25;;;4.78;;
27223;SDS011;14965;50.660;13.226;2022-10-22T06:36:23;8.93;;;5.22;;
27223;SDS011;14965;50.660;13.226;2022-10-22T06:38:50;7.13;;;4.15;;
27223;SDS011;14965;50.660;13.226;2022-10-22T06:41:18;6.15;;;3.30;;
27223;SDS011;14965;50.660;13.226;2022-10-22T06:43:44;3.30;;;2.38;;
27223;SDS011;14965;50.660;13.226;2022-10-22T06:46:11;6.35;;;2.42;;
27223;SDS011;14965;50.660;13.226;2022-10-22T06:51:08;3.03;;;1.85;;
27223;SDS011;14965;50.660;13.226;2022-10-22T06:56:06;4.93;;;2.55;;
27223;SDS011;14965;50.660;13.226;2022-10-22T06:58:33;10.32;;;2.20;;
27223;SDS011;14965;50.660;13.226;2022-10-22T07:01:00;4.25;;;2.10;;
27223;SDS011;14965;50.660;13.226;2022-10-22T07:03:27;5.63;;;2.10;;
27223;SDS011;14965;50.660;13.226;2022-10-22T07:05:55;6.72;;;2.00;;
27223;SDS011;14965;50.660;13.226;2022-10-22T07:08:24;5.60;;;2.22;;
27223;SDS011;14965;50.660;13.226;2022-10-22T07:10:50;5.10;;;1.95;;
27223;SDS011;14965;50.660;13.226;2022-10-22T07:13:16;5.35;;;2.47;;
27223;SDS011;14965;50.660;13.226;2022-10-22T07:15:41;4.70;;;2.40;;
27223;SDS011;14965;50.660;13.226;2022-10-22T07:18:07;4.72;;;2.60;;
27223;SDS011;14965;50.660;13.226;2022-10-22T07:20:33;4.43;;;2.35;;
27223;SDS011;14965;50.660;13.226;2022-10-22T07:23:01;4.90;;;3.00;;
27223;SDS011;14965;50.660;13.226;2022-10-22T07:25:26;12.00;;;7.38;;
27223;SDS011;14965;50.660;13.226;2022-10-22T07:27:52;6.13;;;3.50;;
27223;SDS011;14965;50.660;13.226;2022-10-22T07:30:18;6.20;;;4.50;;
27223;SDS011;14965;50.660;13.226;2022-10-22T07:32:44;6.45;;;4.57;;
27223;SDS011;14965;50.660;13.226;2022-10-22T07:35:10;9.63;;;3.22;;
27223;SDS011;14965;50.660;13.226;2022-10-22T07:37:36;5.13;;;3.20;;
27223;SDS011;14965;50.660;13.226;2022-10-22T07:40:04;5.38;;;3.72;;
27223;SDS011;14965;50.660;13.226;2022-10-22T07:44:57;6.25;;;4.13;;
27223;SDS011;14965;50.660;13.226;2022-10-22T07:47:23;6.65;;;4.22;;
27223;SDS011;14965;50.660;13.226;2022-10-22T07:49:48;5.00;;;3.65;;
27223;SDS011;14965;50.660;13.226;2022-10-22T07:52:14;7.75;;;4.72;;
27223;SDS011;14965;50.660;13.226;2022-10-22T07:54:40;10.20;;;6.07;;
27223;SDS011;14965;50.660;13.226;2022-10-22T07:57:08;11.77;;;6.85;;
27223;SDS011;14965;50.660;13.226;2022-10-22T07:59:33;6.20;;;4.38;;
27223;SDS011;14965;50.660;13.226;2022-10-22T08:01:59;10.25;;;6.55;;
27223;SDS011;14965;50.660;13.226;2022-10-22T08:04:25;7.50;;;4.90;;
27223;SDS011;14965;50.660;13.226;2022-10-22T08:06:51;9.85;;;5.70;;
27223;SDS011;14965;50.660;13.226;2022-10-22T08:09:17;13.15;;;8.00;;
27223;SDS011;14965;50.660;13.226;2022-10-22T08:11:43;12.43;;;5.80;;
27223;SDS011;14965;50.660;13.226;2022-10-22T08:14:10;11.25;;;5.65;;
27223;SDS011;14965;50.660;13.226;2022-10-22T08:16:36;5.03;;;3.90;;
27223;SDS011;14965;50.660;13.226;2022-10-22T08:19:02;7.68;;;4.68;;
27223;SDS011;14965;50.660;13.226;2022-10-22T08:21:28;5.10;;;3.60;;
27223;SDS011;14965;50.660;13.226;2022-10-22T08:23:54;6.32;;;3.58;;
27223;SDS011;14965;50.660;13.226;2022-10-22T08:26:20;5.35;;;3.83;;
27223;SDS011;14965;50.660;13.226;2022-10-22T08:28:46;7.35;;;3.10;;
27223;SDS011;14965;50.660;13.226;2022-10-22T08:31:13;6.05;;;3.90;;
27223;SDS011;14965;50.660;13.226;2022-10-22T08:33:39;3.25;;;2.90;;
27223;SDS011;14965;50.660;13.226;2022-10-22T08:36:05;9.27;;;3.60;;
27223;SDS011;14965;50.660;13.226;2022-10-22T08:38:32;6.63;;;3.30;;
27223;SDS011;14965;50.660;13.226;2022-10-22T08:40:59;4.85;;;2.95;;
27223;SDS011;14965;50.660;13.226;2022-10-22T08:43:36;6.15;;;2.83;;
27223;SDS011;14965;50.660;13.226;2022-10-22T08:46:26;4.57;;;2.40;;
27223;SDS011;14965;50.660;13.226;2022-10-22T08:49:15;4.65;;;2.88;;
27223;SDS011;14965;50.660;13.226;2022-10-22T08:51:47;5.15;;;2.40;;
27223;SDS011;14965;50.660;13.226;2022-10-22T08:54:16;3.35;;;1.98;;
27223;SDS011;14965;50.660;13.226;2022-10-22T08:57:10;2.67;;;2.10;;
27223;SDS011;14965;50.660;13.226;2022-10-22T08:59:49;4.22;;;2.17;;
27223;SDS011;14965;50.660;13.226;2022-10-22T09:02:29;3.17;;;2.17;;
27223;SDS011;14965;50.660;13.226;2022-10-22T09:05:15;4.38;;;2.42;;
27223;SDS011;14965;50.660;13.226;2022-10-22T09:07:55;4.15;;;1.90;;
27223;SDS011;14965;50.660;13.226;2022-10-22T09:10:23;4.28;;;2.50;;
27223;SDS011;14965;50.660;13.226;2022-10-22T09:12:55;2.30;;;1.42;;
27223;SDS011;14965;50.660;13.226;2022-10-22T09:15:21;5.85;;;1.80;;
27223;SDS011;14965;50.660;13.226;2022-10-22T09:18:10;2.70;;;1.70;;
27223;SDS011;14965;50.660;13.226;2022-10-22T09:20:53;6.20;;;1.90;;
27223;SDS011;14965;50.660;13.226;2022-10-22T09:23:26;4.70;;;2.40;;
27223;SDS011;14965;50.660;13.226;2022-10-22T09:26:07;4.22;;;2.88;;
27223;SDS011;14965;50.660;13.226;2022-10-22T09:28:38;5.07;;;3.58;;
27223;SDS011;14965;50.660;13.226;2022-10-22T09:31:07;1.98;;;1.38;;
27223;SDS011;14965;50.660;13.226;2022-10-22T09:33:37;3.42;;;1.52;;
27223;SDS011;14965;50.660;13.226;2022-10-22T09:36:04;2.45;;;1.55;;
27223;SDS011;14965;50.660;13.226;2022-10-22T09:38:32;6.50;;;1.92;;
27223;SDS011;14965;50.660;13.226;2022-10-22T09:41:04;4.15;;;2.40;;
27223;SDS011;14965;50.660;13.226;2022-10-22T09:43:30;2.17;;;1.58;;
27223;SDS011;14965;50.660;13.226;2022-10-22T09:45:58;1.50;;;1.30;;
27223;SDS011;14965;50.660;13.226;2022-10-22T09:48:27;7.28;;;1.33;;
27223;SDS011;14965;50.660;13.226;2022-10-22T09:51:00;2.05;;;1.15;;
27223;SDS011;14965;50.660;13.226;2022-10-22T09:53:36;1.90;;;1.23;;
27223;SDS011;14965;50.660;13.226;2022-10-22T09:56:08;1.75;;;1.00;;
27223;SDS011;14965;50.660;13.226;2022-10-22T09:58:43;1.52;;;1.20;;
27223;SDS011;14965;50.660;13.226;2022-10-22T10:01:15;5.30;;;2.63;;
27223;SDS011;14965;50.660;13.226;2022-10-22T10:03:47;2.53;;;1.80;;
27223;SDS011;14965;50.660;13.226;2022-10-22T10:06:17;2.05;;;1.25;;
27223;SDS011;14965;50.660;13.226;2022-10-22T10:08:44;1.98;;;1.15;;
27223;SDS011;14965;50.660;13.226;2022-10-22T10:11:12;4.85;;;1.25;;
27223;SDS011;14965;50.660;13.226;2022-10-22T10:13:51;2.30;;;1.27;;
27223;SDS011;14965;50.660;13.226;2022-10-22T10:16:35;3.00;;;1.20;;
27223;SDS011;14965;50.660;13.226;2022-10-22T10:19:15;1.77;;;1.20;;
27223;SDS011;14965;50.660;13.226;2022-10-22T10:22:03;2.63;;;1.40;;
27223;SDS011;14965;50.660;13.226;2022-10-22T10:24:44;1.45;;;1.10;;
27223;SDS011;14965;50.660;13.226;2022-10-22T10:27:27;2.60;;;1.10;;
27223;SDS011;14965;50.660;13.226;2022-10-22T10:30:02;4.38;;;1.30;;
27223;SDS011;14965;50.660;13.226;2022-10-22T10:32:47;2.40;;;1.40;;
27223;SDS011;14965;50.660;13.226;2022-10-22T10:35:27;2.95;;;1.48;;
27223;SDS011;14965;50.660;13.226;2022-10-22T10:38:07;2.63;;;1.20;;
27223;SDS011;14965;50.660;13.226;2022-10-22T10:40:49;3.17;;;1.50;;
27223;SDS011;14965;50.660;13.226;2022-10-22T10:43:24;2.85;;;1.02;;
27223;SDS011;14965;50.660;13.226;2022-10-22T10:46:03;2.50;;;1.60;;
27223;SDS011;14965;50.660;13.226;2022-10-22T10:48:44;3.80;;;1.70;;
27223;SDS011;14965;50.660;13.226;2022-10-22T10:51:28;2.50;;;1.60;;
27223;SDS011;14965;50.660;13.226;2022-10-22T10:54:17;1.60;;;1.20;;
27223;SDS011;14965;50.660;13.226;2022-10-22T10:56:57;4.20;;;1.40;;
27223;SDS011;14965;50.660;13.226;2022-10-22T10:59:32;4.53;;;1.70;;
27223;SDS011;14965;50.660;13.226;2022-10-22T11:02:31;1.90;;;1.40;;
27223;SDS011;14965;50.660;13.226;2022-10-22T11:05:38;2.25;;;1.40;;
27223;SDS011;14965;50.660;13.226;2022-10-22T11:08:10;4.18;;;1.60;;
27223;SDS011;14965;50.660;13.226;2022-10-22T11:10:43;3.22;;;1.58;;
27223;SDS011;14965;50.660;13.226;2022-10-22T11:13:14;1.70;;;1.30;;
27223;SDS011;14965;50.660;13.226;2022-10-22T11:15:49;2.85;;;1.40;;
27223;SDS011;14965;50.660;13.226;2022-10-22T11:18:26;2.85;;;1.52;;
27223;SDS011;14965;50.660;13.226;2022-10-22T11:21:06;3.30;;;1.55;;
27223;SDS011;14965;50.660;13.226;2022-10-22T11:23:44;6.53;;;1.70;;
27223;SDS011;14965;50.660;13.226;2022-10-22T11:26:18;2.28;;;1.33;;
27223;SDS011;14965;50.660;13.226;2022-10-22T11:28:56;1.58;;;1.30;;
27223;SDS011;14965;50.660;13.226;2022-10-22T11:31:25;1.95;;;1.45;;
27223;SDS011;14965;50.660;13.226;2022-10-22T11:33:56;1.27;;;1.10;;
27223;SDS011;14965;50.660;13.226;2022-10-22T11:36:29;1.85;;;1.25;;
27223;SDS011;14965;50.660;13.226;2022-10-22T11:38:57;1.75;;;1.08;;
27223;SDS011;14965;50.660;13.226;2022-10-22T11:41:26;2.20;;;1.20;;
27223;SDS011;14965;50.660;13.226;2022-10-22T11:43:58;4.35;;;1.40;;
27223;SDS011;14965;50.660;13.226;2022-10-22T11:46:37;1.85;;;1.38;;
27223;SDS011;14965;50.660;13.226;2022-10-22T11:49:16;1.77;;;1.33;;
27223;SDS011;14965;50.660;13.226;2022-10-22T11:51:47;3.55;;;1.20;;
27223;SDS011;14965;50.660;13.226;2022-10-22T11:54:25;1.83;;;1.20;;
27223;SDS011;14965;50.660;13.226;2022-10-22T11:57:16;3.03;;;1.30;;
27223;SDS011;14965;50.660;13.226;2022-10-22T11:59:49;2.20;;;1.00;;
27223;SDS011;14965;50.660;13.226;2022-10-22T12:05:17;2.20;;;1.20;;
27223;SDS011;14965;50.660;13.226;2022-10-22T12:08:19;2.80;;;1.08;;
27223;SDS011;14965;50.660;13.226;2022-10-22T12:11:00;1.45;;;1.00;;
27223;SDS011;14965;50.660;13.226;2022-10-22T12:13:52;1.55;;;1.20;;
27223;SDS011;14965;50.660;13.226;2022-10-22T12:16:38;1.50;;;0.82;;
27223;SDS011;14965;50.660;13.226;2022-10-22T12:19:11;4.47;;;1.10;;
27223;SDS011;14965;50.660;13.226;2022-10-22T12:21:41;2.00;;;1.13;;
27223;SDS011;14965;50.660;13.226;2022-10-22T12:24:13;1.25;;;1.00;;
27223;SDS011;14965;50.660;13.226;2022-10-22T12:26:43;1.13;;;0.85;;
27223;SDS011;14965;50.660;13.226;2022-10-22T12:29:11;1.73;;;1.00;;
27223;SDS011;14965;50.660;13.226;2022-10-22T12:31:41;1.73;;;1.00;;
27223;SDS011;14965;50.660;13.226;2022-10-22T12:34:14;2.17;;;1.38;;
27223;SDS011;14965;50.660;13.226;2022-10-22T12:36:45;3.03;;;1.05;;
27223;SDS011;14965;50.660;13.226;2022-10-22T12:39:13;5.10;;;1.20;;
27223;SDS011;14965;50.660;13.226;2022-10-22T12:41:42;3.40;;;1.08;;
27223;SDS011;14965;50.660;13.226;2022-10-22T12:44:11;1.95;;;1.08;;
27223;SDS011;14965;50.660;13.226;2022-10-22T12:46:40;2.53;;;1.50;;
27223;SDS011;14965;50.660;13.226;2022-10-22T12:49:13;1.88;;;1.00;;
27223;SDS011;14965;50.660;13.226;2022-10-22T12:51:44;1.25;;;1.00;;
27223;SDS011;14965;50.660;13.226;2022-10-22T12:54:21;2.33;;;1.00;;
27223;SDS011;14965;50.660;13.226;2022-10-22T12:56:52;2.95;;;1.08;;
27223;SDS011;14965;50.660;13.226;2022-10-22T12:59:21;1.63;;;1.10;;
27223;SDS011;14965;50.660;13.226;2022-10-22T13:01:52;3.53;;;1.00;;
27223;SDS011;14965;50.660;13.226;2022-10-22T13:04:30;1.83;;;1.00;;
27223;SDS011;14965;50.660;13.226;2022-10-22T13:07:03;5.07;;;1.23;;
27223;SDS011;14965;50.660;13.226;2022-10-22T13:09:46;1.73;;;1.10;;
27223;SDS011;14965;50.660;13.226;2022-10-22T13:12:23;4.68;;;1.30;;
27223;SDS011;14965;50.660;13.226;2022-10-22T13:14:52;1.65;;;1.40;;
27223;SDS011;14965;50.660;13.226;2022-10-22T13:17:19;2.78;;;1.88;;
27223;SDS011;14965;50.660;13.226;2022-10-22T13:20:02;3.53;;;1.60;;
27223;SDS011;14965;50.660;13.226;2022-10-22T13:25:19;2.33;;;1.10;;
27223;SDS011;14965;50.660;13.226;2022-10-22T13:27:49;2.47;;;1.10;;
27223;SDS011;14965;50.660;13.226;2022-10-22T13:30:21;3.75;;;1.55;;
27223;SDS011;14965;50.660;13.226;2022-10-22T13:32:52;2.55;;;1.25;;
27223;SDS011;14965;50.660;13.226;2022-10-22T13:35:22;3.15;;;1.15;;
27223;SDS011;14965;50.660;13.226;2022-10-22T13:37:51;3.45;;;1.98;;
27223;SDS011;14965;50.660;13.226;2022-10-22T13:40:17;2.10;;;1.70;;
27223;SDS011;14965;50.660;13.226;2022-10-22T13:42:44;3.35;;;2.30;;
27223;SDS011;14965;50.660;13.226;2022-10-22T13:45:10;15.65;;;7.30;;
27223;SDS011;14965;50.660;13.226;2022-10-22T13:47:39;2.33;;;1.52;;
27223;SDS011;14965;50.660;13.226;2022-10-22T13:50:11;1.85;;;1.00;;
27223;SDS011;14965;50.660;13.226;2022-10-22T13:52:41;2.92;;;2.00;;
27223;SDS011;14965;50.660;13.226;2022-10-22T13:55:17;1.42;;;0.95;;
27223;SDS011;14965;50.660;13.226;2022-10-22T13:57:46;2.35;;;1.30;;
27223;SDS011;14965;50.660;13.226;2022-10-22T14:00:16;3.92;;;1.70;;
27223;SDS011;14965;50.660;13.226;2022-10-22T14:02:46;2.67;;;1.80;;
27223;SDS011;14965;50.660;13.226;2022-10-22T14:05:16;1.77;;;1.30;;
27223;SDS011;14965;50.660;13.226;2022-10-22T14:08:22;3.30;;;1.13;;
27223;SDS011;14965;50.660;13.226;2022-10-22T15:48:14;9.55;;;2.55;;
27223;SDS011;14965;50.660;13.226;2022-10-22T15:50:40;4.20;;;2.65;;
27223;SDS011;14965;50.660;13.226;2022-10-22T15:53:06;7.20;;;4.53;;
27223;SDS011;14965;50.660;13.226;2022-10-22T15:55:32;5.18;;;3.60;;
27223;SDS011;14965;50.660;13.226;2022-10-22T15:57:58;8.25;;;3.70;;
27223;SDS011;14965;50.660;13.226;2022-10-22T16:00:24;4.97;;;2.95;;
27223;SDS011;14965;50.660;13.226;2022-10-22T16:02:52;9.95;;;4.07;;
27223;SDS011;14965;50.660;13.226;2022-10-22T16:05:19;9.77;;;3.90;;
27223;SDS011;14965;50.660;13.226;2022-10-22T16:07:45;6.93;;;3.58;;
27223;SDS011;14965;50.660;13.226;2022-10-22T16:10:11;4.95;;;3.75;;
27223;SDS011;14965;50.660;13.226;2022-10-22T16:12:37;7.30;;;3.97;;
27223;SDS011;14965;50.660;13.226;2022-10-22T16:15:03;7.80;;;4.38;;
27223;SDS011;14965;50.660;13.226;2022-10-22T16:17:31;9.38;;;4.82;;
27223;SDS011;14965;50.660;13.226;2022-10-22T16:19:57;8.75;;;4.80;;
27223;SDS011;14965;50.660;13.226;2022-10-22T16:22:24;6.68;;;5.18;;
27223;SDS011;14965;50.660;13.226;2022-10-22T16:24:50;7.35;;;5.35;;
27223;SDS011;14965;50.660;13.226;2022-10-22T16:27:16;8.07;;;5.57;;
27223;SDS011;14965;50.660;13.226;2022-10-22T16:29:42;9.63;;;5.53;;
27223;SDS011;14965;50.660;13.226;2022-10-22T16:32:08;8.57;;;5.90;;
27223;SDS011;14965;50.660;13.226;2022-10-22T16:34:33;7.93;;;6.38;;
27223;SDS011;14965;50.660;13.226;2022-10-22T16:36:59;7.43;;;4.60;;
27223;SDS011;14965;50.660;13.226;2022-10-22T16:39:27;5.97;;;4.82;;
27223;SDS011;14965;50.660;13.226;2022-10-22T16:41:52;6.15;;;4.07;;
27223;SDS011;14965;50.660;13.226;2022-10-22T16:44:18;8.15;;;4.65;;
27223;SDS011;14965;50.660;13.226;2022-10-22T16:46:44;10.02;;;7.20;;